Red Canyon, Utah
Current Conditions -  °F | °C
As of 12:53 AM on Tuesday 21 Oct 2014 (Local Time) from KBCE Reporting Station
Clear Clear  
Wind Chill: 27°   Ceiling: Unl
Heat Index: 32°   Visibility: 10mi
Dew Point: 30°   Wind: 5mph
Humidity: 92%   Direction: 230°SW
Pressure: 30.18"   Gusts: NA
Location:  37.74°N, 112.34°W
Report Text: KBCE 210653Z AUTO 23004KT 10SM CLR 00/M01 A3018 RMK AO2 SLP144 T00001011 401671011 TSNO
Loading
Personal Weather Stations






























Interactive Weather Map
Tropical Storm Tracking
New forecast layout! Learn more

10-Day Weather Forecast

Advertisements
Track Severe Weather on mobile